sensor_id;sensor_type;location;lat;lon;timestamp;P1;durP1;ratioP1;P2;durP2;ratioP2
13685;SDS011;6915;48.296;8.874;2023-01-15T00:02:19;0.10;;;0.10;;
13685;SDS011;6915;48.296;8.874;2023-01-15T00:04:50;0.20;;;0.20;;
13685;SDS011;6915;48.296;8.874;2023-01-15T00:07:19;0.30;;;0.10;;
13685;SDS011;6915;48.296;8.874;2023-01-15T00:09:50;0.30;;;0.17;;
13685;SDS011;6915;48.296;8.874;2023-01-15T00:12:20;0.23;;;0.23;;
13685;SDS011;6915;48.296;8.874;2023-01-15T00:14:50;0.13;;;0.10;;
13685;SDS011;6915;48.296;8.874;2023-01-15T00:17:22;0.20;;;0.20;;
13685;SDS011;6915;48.296;8.874;2023-01-15T00:19:53;0.80;;;0.30;;
13685;SDS011;6915;48.296;8.874;2023-01-15T00:22:22;0.20;;;0.10;;
13685;SDS011;6915;48.296;8.874;2023-01-15T00:24:52;0.10;;;0.10;;
13685;SDS011;6915;48.296;8.874;2023-01-15T00:27:39;0.23;;;0.20;;
13685;SDS011;6915;48.296;8.874;2023-01-15T00:30:09;0.57;;;0.20;;
13685;SDS011;6915;48.296;8.874;2023-01-15T00:32:40;0.13;;;0.10;;
13685;SDS011;6915;48.296;8.874;2023-01-15T00:35:12;1.83;;;0.20;;
13685;SDS011;6915;48.296;8.874;2023-01-15T00:37:46;0.13;;;0.13;;
13685;SDS011;6915;48.296;8.874;2023-01-15T00:40:16;0.10;;;0.10;;
13685;SDS011;6915;48.296;8.874;2023-01-15T00:42:45;0.53;;;0.10;;
13685;SDS011;6915;48.296;8.874;2023-01-15T00:45:14;0.10;;;0.10;;
13685;SDS011;6915;48.296;8.874;2023-01-15T00:47:44;0.10;;;0.10;;
13685;SDS011;6915;48.296;8.874;2023-01-15T00:50:16;0.60;;;0.40;;
13685;SDS011;6915;48.296;8.874;2023-01-15T00:52:45;0.30;;;0.20;;
13685;SDS011;6915;48.296;8.874;2023-01-15T00:55:15;0.20;;;0.20;;
13685;SDS011;6915;48.296;8.874;2023-01-15T00:57:44;0.10;;;0.10;;
13685;SDS011;6915;48.296;8.874;2023-01-15T01:00:15;0.20;;;0.10;;
13685;SDS011;6915;48.296;8.874;2023-01-15T01:02:43;0.13;;;0.13;;
13685;SDS011;6915;48.296;8.874;2023-01-15T01:05:12;0.40;;;0.10;;
13685;SDS011;6915;48.296;8.874;2023-01-15T01:07:43;0.30;;;0.10;;
13685;SDS011;6915;48.296;8.874;2023-01-15T01:10:13;0.17;;;0.10;;
13685;SDS011;6915;48.296;8.874;2023-01-15T01:12:42;0.20;;;0.10;;
13685;SDS011;6915;48.296;8.874;2023-01-15T01:15:17;0.10;;;0.10;;
13685;SDS011;6915;48.296;8.874;2023-01-15T01:17:48;0.10;;;0.10;;
13685;SDS011;6915;48.296;8.874;2023-01-15T01:20:17;0.30;;;0.00;;
13685;SDS011;6915;48.296;8.874;2023-01-15T01:22:48;0.20;;;0.10;;
13685;SDS011;6915;48.296;8.874;2023-01-15T01:25:17;0.93;;;0.20;;
13685;SDS011;6915;48.296;8.874;2023-01-15T01:27:48;0.10;;;0.10;;
13685;SDS011;6915;48.296;8.874;2023-01-15T01:30:16;0.20;;;0.20;;
13685;SDS011;6915;48.296;8.874;2023-01-15T01:32:46;0.40;;;0.10;;
13685;SDS011;6915;48.296;8.874;2023-01-15T01:35:15;0.30;;;0.10;;
13685;SDS011;6915;48.296;8.874;2023-01-15T01:37:42;0.10;;;0.10;;
13685;SDS011;6915;48.296;8.874;2023-01-15T01:40:16;0.40;;;0.10;;
13685;SDS011;6915;48.296;8.874;2023-01-15T01:42:45;0.20;;;0.20;;
13685;SDS011;6915;48.296;8.874;2023-01-15T01:45:17;0.10;;;0.10;;
13685;SDS011;6915;48.296;8.874;2023-01-15T01:47:49;0.20;;;0.10;;
13685;SDS011;6915;48.296;8.874;2023-01-15T01:50:20;0.00;;;0.00;;
13685;SDS011;6915;48.296;8.874;2023-01-15T01:52:52;0.37;;;0.20;;
13685;SDS011;6915;48.296;8.874;2023-01-15T01:55:24;0.10;;;0.10;;
13685;SDS011;6915;48.296;8.874;2023-01-15T01:57:56;0.10;;;0.10;;
13685;SDS011;6915;48.296;8.874;2023-01-15T02:00:28;0.20;;;0.10;;
13685;SDS011;6915;48.296;8.874;2023-01-15T02:02:59;0.33;;;0.17;;
13685;SDS011;6915;48.296;8.874;2023-01-15T02:05:32;0.40;;;0.00;;
13685;SDS011;6915;48.296;8.874;2023-01-15T02:08:05;0.00;;;0.00;;
13685;SDS011;6915;48.296;8.874;2023-01-15T02:10:34;0.73;;;0.10;;
13685;SDS011;6915;48.296;8.874;2023-01-15T02:13:06;0.10;;;0.10;;
13685;SDS011;6915;48.296;8.874;2023-01-15T02:15:37;0.10;;;0.10;;
13685;SDS011;6915;48.296;8.874;2023-01-15T02:18:11;0.40;;;0.10;;
13685;SDS011;6915;48.296;8.874;2023-01-15T02:20:47;0.00;;;0.00;;
13685;SDS011;6915;48.296;8.874;2023-01-15T02:23:25;0.10;;;0.00;;
13685;SDS011;6915;48.296;8.874;2023-01-15T02:26:17;0.07;;;0.00;;
13685;SDS011;6915;48.296;8.874;2023-01-15T02:29:11;0.10;;;0.00;;
13685;SDS011;6915;48.296;8.874;2023-01-15T02:31:44;0.10;;;0.10;;
13685;SDS011;6915;48.296;8.874;2023-01-15T02:34:18;0.10;;;0.10;;
13685;SDS011;6915;48.296;8.874;2023-01-15T02:36:52;0.97;;;0.13;;
13685;SDS011;6915;48.296;8.874;2023-01-15T02:39:26;0.87;;;0.10;;
13685;SDS011;6915;48.296;8.874;2023-01-15T02:41:57;0.73;;;0.10;;
13685;SDS011;6915;48.296;8.874;2023-01-15T02:44:31;0.10;;;0.10;;
13685;SDS011;6915;48.296;8.874;2023-01-15T02:47:03;0.20;;;0.00;;
13685;SDS011;6915;48.296;8.874;2023-01-15T02:49:35;1.23;;;0.13;;
13685;SDS011;6915;48.296;8.874;2023-01-15T02:52:07;0.00;;;0.00;;
13685;SDS011;6915;48.296;8.874;2023-01-15T02:54:41;0.10;;;0.10;;
13685;SDS011;6915;48.296;8.874;2023-01-15T02:57:18;0.00;;;0.00;;
13685;SDS011;6915;48.296;8.874;2023-01-15T02:59:51;0.50;;;0.20;;
13685;SDS011;6915;48.296;8.874;2023-01-15T03:02:23;0.00;;;0.00;;
13685;SDS011;6915;48.296;8.874;2023-01-15T03:04:55;0.20;;;0.00;;
13685;SDS011;6915;48.296;8.874;2023-01-15T03:07:34;0.20;;;0.00;;
13685;SDS011;6915;48.296;8.874;2023-01-15T03:10:07;0.10;;;0.10;;
13685;SDS011;6915;48.296;8.874;2023-01-15T03:12:40;0.40;;;0.10;;
13685;SDS011;6915;48.296;8.874;2023-01-15T03:15:30;0.83;;;0.10;;
13685;SDS011;6915;48.296;8.874;2023-01-15T03:18:22;0.10;;;0.10;;
13685;SDS011;6915;48.296;8.874;2023-01-15T03:20:54;0.10;;;0.00;;
13685;SDS011;6915;48.296;8.874;2023-01-15T03:23:26;0.27;;;0.10;;
13685;SDS011;6915;48.296;8.874;2023-01-15T03:25:57;0.90;;;0.07;;
13685;SDS011;6915;48.296;8.874;2023-01-15T03:28:26;0.30;;;0.00;;
13685;SDS011;6915;48.296;8.874;2023-01-15T03:31:01;0.00;;;0.00;;
13685;SDS011;6915;48.296;8.874;2023-01-15T03:33:31;0.43;;;0.10;;
13685;SDS011;6915;48.296;8.874;2023-01-15T03:36:01;0.10;;;0.10;;
13685;SDS011;6915;48.296;8.874;2023-01-15T03:38:31;0.23;;;0.10;;
13685;SDS011;6915;48.296;8.874;2023-01-15T03:41:04;0.10;;;0.00;;
13685;SDS011;6915;48.296;8.874;2023-01-15T03:43:40;0.83;;;0.20;;
13685;SDS011;6915;48.296;8.874;2023-01-15T03:46:24;0.00;;;0.00;;
13685;SDS011;6915;48.296;8.874;2023-01-15T03:49:00;0.43;;;0.10;;
13685;SDS011;6915;48.296;8.874;2023-01-15T03:51:36;0.73;;;0.00;;
13685;SDS011;6915;48.296;8.874;2023-01-15T03:54:12;0.10;;;0.10;;
13685;SDS011;6915;48.296;8.874;2023-01-15T03:56:49;0.80;;;0.10;;
13685;SDS011;6915;48.296;8.874;2023-01-15T03:59:25;0.60;;;0.10;;
13685;SDS011;6915;48.296;8.874;2023-01-15T04:01:59;0.00;;;0.00;;
13685;SDS011;6915;48.296;8.874;2023-01-15T04:04:31;0.00;;;0.00;;
13685;SDS011;6915;48.296;8.874;2023-01-15T04:07:01;0.00;;;0.00;;
13685;SDS011;6915;48.296;8.874;2023-01-15T04:09:31;0.00;;;0.00;;
13685;SDS011;6915;48.296;8.874;2023-01-15T04:12:05;0.00;;;0.00;;
13685;SDS011;6915;48.296;8.874;2023-01-15T04:14:35;0.10;;;0.00;;
13685;SDS011;6915;48.296;8.874;2023-01-15T04:17:06;0.00;;;0.00;;
13685;SDS011;6915;48.296;8.874;2023-01-15T04:19:36;1.50;;;0.00;;
13685;SDS011;6915;48.296;8.874;2023-01-15T04:22:05;0.00;;;0.00;;
13685;SDS011;6915;48.296;8.874;2023-01-15T04:24:35;0.20;;;0.10;;
13685;SDS011;6915;48.296;8.874;2023-01-15T04:27:04;0.00;;;0.00;;
13685;SDS011;6915;48.296;8.874;2023-01-15T04:29:33;1.20;;;0.00;;
13685;SDS011;6915;48.296;8.874;2023-01-15T04:32:02;0.10;;;0.10;;
13685;SDS011;6915;48.296;8.874;2023-01-15T04:34:32;0.00;;;0.00;;
13685;SDS011;6915;48.296;8.874;2023-01-15T04:37:01;0.00;;;0.00;;
13685;SDS011;6915;48.296;8.874;2023-01-15T04:39:30;0.10;;;0.00;;
13685;SDS011;6915;48.296;8.874;2023-01-15T04:41:59;0.00;;;0.00;;
13685;SDS011;6915;48.296;8.874;2023-01-15T04:44:46;0.03;;;0.03;;
13685;SDS011;6915;48.296;8.874;2023-01-15T04:47:14;0.10;;;0.10;;
13685;SDS011;6915;48.296;8.874;2023-01-15T04:49:44;0.00;;;0.00;;
13685;SDS011;6915;48.296;8.874;2023-01-15T04:52:13;0.03;;;0.03;;
13685;SDS011;6915;48.296;8.874;2023-01-15T04:54:42;0.00;;;0.00;;
13685;SDS011;6915;48.296;8.874;2023-01-15T04:57:11;0.10;;;0.10;;
13685;SDS011;6915;48.296;8.874;2023-01-15T04:59:39;0.73;;;0.00;;
13685;SDS011;6915;48.296;8.874;2023-01-15T05:02:08;0.00;;;0.00;;
13685;SDS011;6915;48.296;8.874;2023-01-15T05:04:37;0.00;;;0.00;;
13685;SDS011;6915;48.296;8.874;2023-01-15T05:07:08;0.00;;;0.00;;
13685;SDS011;6915;48.296;8.874;2023-01-15T05:09:37;0.57;;;0.00;;
13685;SDS011;6915;48.296;8.874;2023-01-15T05:12:05;0.20;;;0.10;;
13685;SDS011;6915;48.296;8.874;2023-01-15T05:14:35;0.40;;;0.17;;
13685;SDS011;6915;48.296;8.874;2023-01-15T05:17:05;0.10;;;0.00;;
13685;SDS011;6915;48.296;8.874;2023-01-15T05:19:33;0.00;;;0.00;;
13685;SDS011;6915;48.296;8.874;2023-01-15T05:22:02;0.00;;;0.00;;
13685;SDS011;6915;48.296;8.874;2023-01-15T05:24:33;0.20;;;0.00;;
13685;SDS011;6915;48.296;8.874;2023-01-15T05:27:02;0.00;;;0.00;;
13685;SDS011;6915;48.296;8.874;2023-01-15T05:29:31;0.00;;;0.00;;
13685;SDS011;6915;48.296;8.874;2023-01-15T05:32:01;0.00;;;0.00;;
13685;SDS011;6915;48.296;8.874;2023-01-15T05:34:29;0.00;;;0.00;;
13685;SDS011;6915;48.296;8.874;2023-01-15T05:36:58;1.40;;;0.00;;
13685;SDS011;6915;48.296;8.874;2023-01-15T05:39:27;0.00;;;0.00;;
13685;SDS011;6915;48.296;8.874;2023-01-15T05:41:59;0.23;;;0.00;;
13685;SDS011;6915;48.296;8.874;2023-01-15T05:44:28;0.03;;;0.00;;
13685;SDS011;6915;48.296;8.874;2023-01-15T05:46:58;0.00;;;0.00;;
13685;SDS011;6915;48.296;8.874;2023-01-15T05:49:30;0.10;;;0.10;;
13685;SDS011;6915;48.296;8.874;2023-01-15T05:52:00;0.00;;;0.00;;
13685;SDS011;6915;48.296;8.874;2023-01-15T05:54:31;0.00;;;0.00;;
13685;SDS011;6915;48.296;8.874;2023-01-15T05:57:03;0.00;;;0.00;;
13685;SDS011;6915;48.296;8.874;2023-01-15T05:59:32;0.00;;;0.00;;
13685;SDS011;6915;48.296;8.874;2023-01-15T06:02:01;0.03;;;0.03;;
13685;SDS011;6915;48.296;8.874;2023-01-15T06:04:31;0.87;;;0.10;;
13685;SDS011;6915;48.296;8.874;2023-01-15T06:07:00;0.20;;;0.10;;
13685;SDS011;6915;48.296;8.874;2023-01-15T06:09:29;0.00;;;0.00;;
13685;SDS011;6915;48.296;8.874;2023-01-15T06:11:57;0.10;;;0.00;;
13685;SDS011;6915;48.296;8.874;2023-01-15T06:14:28;0.10;;;0.10;;
13685;SDS011;6915;48.296;8.874;2023-01-15T06:16:57;0.33;;;0.10;;
13685;SDS011;6915;48.296;8.874;2023-01-15T06:19:27;0.63;;;0.10;;
13685;SDS011;6915;48.296;8.874;2023-01-15T06:21:56;0.00;;;0.00;;
13685;SDS011;6915;48.296;8.874;2023-01-15T06:24:25;0.00;;;0.00;;
13685;SDS011;6915;48.296;8.874;2023-01-15T06:26:54;0.03;;;0.00;;
13685;SDS011;6915;48.296;8.874;2023-01-15T06:29:23;0.20;;;0.10;;
13685;SDS011;6915;48.296;8.874;2023-01-15T06:31:54;0.10;;;0.10;;
13685;SDS011;6915;48.296;8.874;2023-01-15T06:34:23;0.63;;;0.00;;
13685;SDS011;6915;48.296;8.874;2023-01-15T06:36:54;0.00;;;0.00;;
13685;SDS011;6915;48.296;8.874;2023-01-15T06:39:22;0.73;;;0.10;;
13685;SDS011;6915;48.296;8.874;2023-01-15T06:41:52;0.00;;;0.00;;
13685;SDS011;6915;48.296;8.874;2023-01-15T06:44:38;0.00;;;0.00;;
13685;SDS011;6915;48.296;8.874;2023-01-15T06:47:26;0.00;;;0.00;;
13685;SDS011;6915;48.296;8.874;2023-01-15T06:49:56;0.10;;;0.10;;
13685;SDS011;6915;48.296;8.874;2023-01-15T06:52:27;0.10;;;0.10;;
13685;SDS011;6915;48.296;8.874;2023-01-15T06:54:56;0.10;;;0.10;;
13685;SDS011;6915;48.296;8.874;2023-01-15T06:57:26;0.40;;;0.10;;
13685;SDS011;6915;48.296;8.874;2023-01-15T06:59:55;0.20;;;0.10;;
13685;SDS011;6915;48.296;8.874;2023-01-15T07:02:26;0.20;;;0.10;;
13685;SDS011;6915;48.296;8.874;2023-01-15T07:04:55;0.10;;;0.10;;
13685;SDS011;6915;48.296;8.874;2023-01-15T07:07:26;0.17;;;0.10;;
13685;SDS011;6915;48.296;8.874;2023-01-15T07:09:55;0.13;;;0.10;;
13685;SDS011;6915;48.296;8.874;2023-01-15T07:12:24;1.37;;;0.20;;
13685;SDS011;6915;48.296;8.874;2023-01-15T07:14:54;0.10;;;0.10;;
13685;SDS011;6915;48.296;8.874;2023-01-15T07:17:25;0.20;;;0.10;;
13685;SDS011;6915;48.296;8.874;2023-01-15T07:19:54;0.13;;;0.10;;
13685;SDS011;6915;48.296;8.874;2023-01-15T07:22:24;0.50;;;0.20;;
13685;SDS011;6915;48.296;8.874;2023-01-15T07:24:53;0.50;;;0.30;;
13685;SDS011;6915;48.296;8.874;2023-01-15T07:27:22;0.97;;;0.50;;
13685;SDS011;6915;48.296;8.874;2023-01-15T07:29:51;0.60;;;0.20;;
13685;SDS011;6915;48.296;8.874;2023-01-15T07:32:21;0.70;;;0.20;;
13685;SDS011;6915;48.296;8.874;2023-01-15T07:34:51;1.60;;;0.30;;
13685;SDS011;6915;48.296;8.874;2023-01-15T07:37:22;1.03;;;0.10;;
13685;SDS011;6915;48.296;8.874;2023-01-15T07:39:51;0.07;;;0.00;;
13685;SDS011;6915;48.296;8.874;2023-01-15T07:42:21;0.00;;;0.00;;
13685;SDS011;6915;48.296;8.874;2023-01-15T07:45:09;0.00;;;0.00;;
13685;SDS011;6915;48.296;8.874;2023-01-15T07:47:55;0.00;;;0.00;;
13685;SDS011;6915;48.296;8.874;2023-01-15T07:50:43;0.10;;;0.00;;
13685;SDS011;6915;48.296;8.874;2023-01-15T07:53:12;0.10;;;0.10;;
13685;SDS011;6915;48.296;8.874;2023-01-15T07:55:41;0.20;;;0.20;;
13685;SDS011;6915;48.296;8.874;2023-01-15T07:58:11;0.10;;;0.10;;
13685;SDS011;6915;48.296;8.874;2023-01-15T08:00:39;0.50;;;0.20;;
13685;SDS011;6915;48.296;8.874;2023-01-15T08:03:09;0.00;;;0.00;;
13685;SDS011;6915;48.296;8.874;2023-01-15T08:05:38;0.20;;;0.20;;
13685;SDS011;6915;48.296;8.874;2023-01-15T08:08:14;0.07;;;0.03;;
13685;SDS011;6915;48.296;8.874;2023-01-15T08:10:44;0.20;;;0.20;;
13685;SDS011;6915;48.296;8.874;2023-01-15T08:13:27;0.10;;;0.10;;
13685;SDS011;6915;48.296;8.874;2023-01-15T08:16:16;0.10;;;0.10;;
13685;SDS011;6915;48.296;8.874;2023-01-15T08:18:46;0.10;;;0.10;;
13685;SDS011;6915;48.296;8.874;2023-01-15T08:21:15;0.10;;;0.10;;
13685;SDS011;6915;48.296;8.874;2023-01-15T08:23:47;0.10;;;0.10;;
13685;SDS011;6915;48.296;8.874;2023-01-15T08:26:16;0.00;;;0.00;;
13685;SDS011;6915;48.296;8.874;2023-01-15T08:28:45;0.20;;;0.20;;
13685;SDS011;6915;48.296;8.874;2023-01-15T08:31:15;0.10;;;0.10;;
13685;SDS011;6915;48.296;8.874;2023-01-15T08:33:43;0.30;;;0.20;;
13685;SDS011;6915;48.296;8.874;2023-01-15T08:36:14;0.37;;;0.30;;
13685;SDS011;6915;48.296;8.874;2023-01-15T08:38:43;0.20;;;0.20;;
13685;SDS011;6915;48.296;8.874;2023-01-15T08:41:15;0.30;;;0.07;;
13685;SDS011;6915;48.296;8.874;2023-01-15T08:43:45;0.40;;;0.10;;
13685;SDS011;6915;48.296;8.874;2023-01-15T08:46:14;0.30;;;0.20;;
13685;SDS011;6915;48.296;8.874;2023-01-15T08:48:44;0.10;;;0.10;;
13685;SDS011;6915;48.296;8.874;2023-01-15T08:51:14;0.10;;;0.10;;
13685;SDS011;6915;48.296;8.874;2023-01-15T08:53:43;0.20;;;0.20;;
13685;SDS011;6915;48.296;8.874;2023-01-15T08:56:16;0.17;;;0.17;;
13685;SDS011;6915;48.296;8.874;2023-01-15T08:58:45;1.10;;;0.30;;
13685;SDS011;6915;48.296;8.874;2023-01-15T09:01:15;0.40;;;0.30;;
13685;SDS011;6915;48.296;8.874;2023-01-15T09:03:45;0.47;;;0.30;;
13685;SDS011;6915;48.296;8.874;2023-01-15T09:06:14;0.20;;;0.20;;
13685;SDS011;6915;48.296;8.874;2023-01-15T09:08:43;0.20;;;0.20;;
13685;SDS011;6915;48.296;8.874;2023-01-15T09:11:12;0.27;;;0.27;;
13685;SDS011;6915;48.296;8.874;2023-01-15T09:13:43;1.83;;;0.40;;
13685;SDS011;6915;48.296;8.874;2023-01-15T09:16:16;0.20;;;0.20;;
13685;SDS011;6915;48.296;8.874;2023-01-15T09:18:47;0.50;;;0.27;;
13685;SDS011;6915;48.296;8.874;2023-01-15T09:21:17;0.30;;;0.27;;
13685;SDS011;6915;48.296;8.874;2023-01-15T09:23:47;0.50;;;0.40;;
13685;SDS011;6915;48.296;8.874;2023-01-15T09:26:23;0.40;;;0.20;;
13685;SDS011;6915;48.296;8.874;2023-01-15T09:28:57;0.10;;;0.10;;
13685;SDS011;6915;48.296;8.874;2023-01-15T09:31:26;0.53;;;0.20;;
13685;SDS011;6915;48.296;8.874;2023-01-15T09:33:57;0.10;;;0.10;;
13685;SDS011;6915;48.296;8.874;2023-01-15T09:36:28;0.30;;;0.10;;
13685;SDS011;6915;48.296;8.874;2023-01-15T09:38:58;0.10;;;0.10;;
13685;SDS011;6915;48.296;8.874;2023-01-15T09:41:30;1.40;;;0.30;;
13685;SDS011;6915;48.296;8.874;2023-01-15T09:44:31;0.23;;;0.20;;
13685;SDS011;6915;48.296;8.874;2023-01-15T09:47:07;0.27;;;0.20;;
13685;SDS011;6915;48.296;8.874;2023-01-15T09:49:42;0.47;;;0.20;;
13685;SDS011;6915;48.296;8.874;2023-01-15T09:52:21;0.20;;;0.10;;
13685;SDS011;6915;48.296;8.874;2023-01-15T09:54:59;0.10;;;0.10;;
13685;SDS011;6915;48.296;8.874;2023-01-15T09:57:36;0.20;;;0.10;;
13685;SDS011;6915;48.296;8.874;2023-01-15T10:00:11;0.20;;;0.20;;
13685;SDS011;6915;48.296;8.874;2023-01-15T10:02:45;0.77;;;0.60;;
13685;SDS011;6915;48.296;8.874;2023-01-15T10:05:17;0.40;;;0.17;;
13685;SDS011;6915;48.296;8.874;2023-01-15T10:07:50;0.10;;;0.10;;
13685;SDS011;6915;48.296;8.874;2023-01-15T10:10:25;0.10;;;0.10;;
13685;SDS011;6915;48.296;8.874;2023-01-15T10:12:59;0.27;;;0.27;;
13685;SDS011;6915;48.296;8.874;2023-01-15T10:15:36;0.00;;;0.00;;
13685;SDS011;6915;48.296;8.874;2023-01-15T10:18:11;0.10;;;0.10;;
13685;SDS011;6915;48.296;8.874;2023-01-15T10:20:55;0.10;;;0.10;;
13685;SDS011;6915;48.296;8.874;2023-01-15T10:23:33;0.00;;;0.00;;
13685;SDS011;6915;48.296;8.874;2023-01-15T10:26:07;0.10;;;0.10;;
13685;SDS011;6915;48.296;8.874;2023-01-15T10:37:28;0.17;;;0.17;;
13685;SDS011;6915;48.296;8.874;2023-01-15T10:40:12;0.03;;;0.03;;
13685;SDS011;6915;48.296;8.874;2023-01-15T10:42:59;0.20;;;0.20;;
13685;SDS011;6915;48.296;8.874;2023-01-15T10:45:35;0.10;;;0.10;;
13685;SDS011;6915;48.296;8.874;2023-01-15T10:48:10;0.10;;;0.10;;
13685;SDS011;6915;48.296;8.874;2023-01-15T10:50:43;0.00;;;0.00;;
13685;SDS011;6915;48.296;8.874;2023-01-15T10:53:13;0.10;;;0.10;;
13685;SDS011;6915;48.296;8.874;2023-01-15T10:55:49;0.70;;;0.40;;
13685;SDS011;6915;48.296;8.874;2023-01-15T10:58:26;1.37;;;1.00;;
13685;SDS011;6915;48.296;8.874;2023-01-15T11:01:00;1.23;;;1.13;;
13685;SDS011;6915;48.296;8.874;2023-01-15T11:03:36;0.40;;;0.40;;
13685;SDS011;6915;48.296;8.874;2023-01-15T11:06:07;0.50;;;0.50;;
13685;SDS011;6915;48.296;8.874;2023-01-15T11:08:41;0.40;;;0.40;;
13685;SDS011;6915;48.296;8.874;2023-01-15T11:11:17;0.77;;;0.20;;
13685;SDS011;6915;48.296;8.874;2023-01-15T11:14:09;0.40;;;0.40;;
13685;SDS011;6915;48.296;8.874;2023-01-15T11:16:55;0.20;;;0.10;;
13685;SDS011;6915;48.296;8.874;2023-01-15T11:19:43;0.20;;;0.20;;
13685;SDS011;6915;48.296;8.874;2023-01-15T11:22:18;0.20;;;0.20;;
13685;SDS011;6915;48.296;8.874;2023-01-15T11:24:48;0.30;;;0.30;;
13685;SDS011;6915;48.296;8.874;2023-01-15T11:27:21;0.40;;;0.40;;
13685;SDS011;6915;48.296;8.874;2023-01-15T11:29:54;0.50;;;0.50;;
13685;SDS011;6915;48.296;8.874;2023-01-15T11:32:27;0.40;;;0.40;;
13685;SDS011;6915;48.296;8.874;2023-01-15T11:35:00;0.20;;;0.20;;
13685;SDS011;6915;48.296;8.874;2023-01-15T11:37:41;0.40;;;0.40;;
13685;SDS011;6915;48.296;8.874;2023-01-15T11:40:14;0.20;;;0.20;;
13685;SDS011;6915;48.296;8.874;2023-01-15T11:42:47;0.23;;;0.23;;
13685;SDS011;6915;48.296;8.874;2023-01-15T11:45:44;0.30;;;0.23;;
13685;SDS011;6915;48.296;8.874;2023-01-15T11:48:42;0.50;;;0.30;;
13685;SDS011;6915;48.296;8.874;2023-01-15T11:51:32;0.40;;;0.20;;
13685;SDS011;6915;48.296;8.874;2023-01-15T11:54:08;0.20;;;0.10;;
13685;SDS011;6915;48.296;8.874;2023-01-15T11:56:43;0.67;;;0.30;;
13685;SDS011;6915;48.296;8.874;2023-01-15T11:59:14;0.33;;;0.10;;
13685;SDS011;6915;48.296;8.874;2023-01-15T12:01:47;0.43;;;0.30;;
13685;SDS011;6915;48.296;8.874;2023-01-15T12:04:24;0.40;;;0.40;;
13685;SDS011;6915;48.296;8.874;2023-01-15T12:07:00;1.80;;;0.30;;
13685;SDS011;6915;48.296;8.874;2023-01-15T12:09:36;0.97;;;0.10;;
13685;SDS011;6915;48.296;8.874;2023-01-15T12:12:21;0.40;;;0.27;;
13685;SDS011;6915;48.296;8.874;2023-01-15T12:20:54;0.10;;;0.10;;
13685;SDS011;6915;48.296;8.874;2023-01-15T12:23:43;0.23;;;0.10;;
13685;SDS011;6915;48.296;8.874;2023-01-15T12:26:23;0.10;;;0.10;;
13685;SDS011;6915;48.296;8.874;2023-01-15T12:28:55;0.30;;;0.30;;
13685;SDS011;6915;48.296;8.874;2023-01-15T12:31:30;0.10;;;0.10;;
13685;SDS011;6915;48.296;8.874;2023-01-15T12:34:04;0.30;;;0.20;;
13685;SDS011;6915;48.296;8.874;2023-01-15T12:36:40;0.20;;;0.20;;
13685;SDS011;6915;48.296;8.874;2023-01-15T12:39:17;0.30;;;0.20;;
13685;SDS011;6915;48.296;8.874;2023-01-15T12:41:49;0.10;;;0.10;;
13685;SDS011;6915;48.296;8.874;2023-01-15T12:44:41;0.20;;;0.20;;
13685;SDS011;6915;48.296;8.874;2023-01-15T12:47:28;0.40;;;0.20;;
13685;SDS011;6915;48.296;8.874;2023-01-15T12:50:03;0.60;;;0.20;;
13685;SDS011;6915;48.296;8.874;2023-01-15T12:52:41;1.00;;;0.20;;
13685;SDS011;6915;48.296;8.874;2023-01-15T12:55:18;0.50;;;0.20;;
13685;SDS011;6915;48.296;8.874;2023-01-15T12:57:50;0.73;;;0.30;;
13685;SDS011;6915;48.296;8.874;2023-01-15T13:00:21;1.93;;;0.27;;
13685;SDS011;6915;48.296;8.874;2023-01-15T13:02:56;0.50;;;0.33;;
13685;SDS011;6915;48.296;8.874;2023-01-15T13:05:29;0.50;;;0.40;;
13685;SDS011;6915;48.296;8.874;2023-01-15T13:08:03;0.50;;;0.20;;
13685;SDS011;6915;48.296;8.874;2023-01-15T13:10:41;0.13;;;0.13;;
13685;SDS011;6915;48.296;8.874;2023-01-15T13:13:14;1.17;;;0.20;;
13685;SDS011;6915;48.296;8.874;2023-01-15T13:15:56;1.50;;;0.40;;
13685;SDS011;6915;48.296;8.874;2023-01-15T13:18:40;1.73;;;0.40;;
13685;SDS011;6915;48.296;8.874;2023-01-15T13:21:17;0.37;;;0.37;;
13685;SDS011;6915;48.296;8.874;2023-01-15T13:26:44;2.00;;;0.90;;
13685;SDS011;6915;48.296;8.874;2023-01-15T16:20:16;0.73;;;0.50;;
13685;SDS011;6915;48.296;8.874;2023-01-15T16:22:46;1.03;;;0.50;;
13685;SDS011;6915;48.296;8.874;2023-01-15T16:25:22;4.20;;;0.73;;
13685;SDS011;6915;48.296;8.874;2023-01-15T16:27:55;1.80;;;0.70;;
13685;SDS011;6915;48.296;8.874;2023-01-15T16:30:26;2.37;;;1.40;;
13685;SDS011;6915;48.296;8.874;2023-01-15T16:32:59;2.83;;;0.90;;
13685;SDS011;6915;48.296;8.874;2023-01-15T16:35:32;0.60;;;0.40;;
13685;SDS011;6915;48.296;8.874;2023-01-15T16:38:02;1.70;;;0.97;;
13685;SDS011;6915;48.296;8.874;2023-01-15T16:40:44;4.10;;;1.00;;
13685;SDS011;6915;48.296;8.874;2023-01-15T16:43:15;3.23;;;1.10;;
13685;SDS011;6915;48.296;8.874;2023-01-15T16:45:56;2.30;;;1.30;;
13685;SDS011;6915;48.296;8.874;2023-01-15T16:48:27;2.87;;;1.43;;
13685;SDS011;6915;48.296;8.874;2023-01-15T16:53:57;3.13;;;1.80;;
13685;SDS011;6915;48.296;8.874;2023-01-15T16:59:52;1.70;;;1.27;;
13685;SDS011;6915;48.296;8.874;2023-01-15T17:02:22;2.00;;;1.10;;
13685;SDS011;6915;48.296;8.874;2023-01-15T17:04:59;2.57;;;1.40;;
13685;SDS011;6915;48.296;8.874;2023-01-15T17:07:40;4.97;;;1.57;;
13685;SDS011;6915;48.296;8.874;2023-01-15T17:12:49;1.90;;;1.10;;
13685;SDS011;6915;48.296;8.874;2023-01-15T17:15:39;1.97;;;1.00;;
13685;SDS011;6915;48.296;8.874;2023-01-15T17:20:56;7.13;;;2.17;;
13685;SDS011;6915;48.296;8.874;2023-01-15T17:23:29;1.57;;;1.40;;
13685;SDS011;6915;48.296;8.874;2023-01-15T17:26:01;2.63;;;1.70;;
13685;SDS011;6915;48.296;8.874;2023-01-15T17:28:31;2.60;;;2.07;;
13685;SDS011;6915;48.296;8.874;2023-01-15T17:31:00;2.47;;;1.43;;
13685;SDS011;6915;48.296;8.874;2023-01-15T17:33:31;3.20;;;2.40;;
13685;SDS011;6915;48.296;8.874;2023-01-15T17:36:00;1.67;;;1.57;;
13685;SDS011;6915;48.296;8.874;2023-01-15T17:38:33;2.70;;;1.77;;
13685;SDS011;6915;48.296;8.874;2023-01-15T17:41:02;4.37;;;3.50;;
13685;SDS011;6915;48.296;8.874;2023-01-15T17:43:35;3.17;;;2.23;;
13685;SDS011;6915;48.296;8.874;2023-01-15T17:46:05;2.63;;;1.37;;
13685;SDS011;6915;48.296;8.874;2023-01-15T17:48:35;4.53;;;1.23;;
13685;SDS011;6915;48.296;8.874;2023-01-15T17:51:05;2.27;;;1.37;;
13685;SDS011;6915;48.296;8.874;2023-01-15T17:53:40;6.10;;;2.47;;
13685;SDS011;6915;48.296;8.874;2023-01-15T17:56:10;4.93;;;2.97;;
13685;SDS011;6915;48.296;8.874;2023-01-15T17:58:57;6.80;;;4.23;;
13685;SDS011;6915;48.296;8.874;2023-01-15T18:01:43;4.23;;;2.53;;
13685;SDS011;6915;48.296;8.874;2023-01-15T18:04:32;5.20;;;2.33;;
13685;SDS011;6915;48.296;8.874;2023-01-15T18:07:23;3.80;;;1.40;;
13685;SDS011;6915;48.296;8.874;2023-01-15T18:09:59;2.83;;;1.43;;
13685;SDS011;6915;48.296;8.874;2023-01-15T18:12:30;3.30;;;1.10;;
13685;SDS011;6915;48.296;8.874;2023-01-15T18:15:00;2.07;;;1.03;;
13685;SDS011;6915;48.296;8.874;2023-01-15T18:17:29;3.63;;;1.53;;
13685;SDS011;6915;48.296;8.874;2023-01-15T18:19:58;1.97;;;0.80;;
13685;SDS011;6915;48.296;8.874;2023-01-15T18:22:28;2.37;;;1.07;;
13685;SDS011;6915;48.296;8.874;2023-01-15T18:24:59;1.90;;;1.00;;
13685;SDS011;6915;48.296;8.874;2023-01-15T18:27:30;3.43;;;1.90;;
13685;SDS011;6915;48.296;8.874;2023-01-15T18:30:02;1.47;;;0.67;;
13685;SDS011;6915;48.296;8.874;2023-01-15T18:32:33;2.10;;;1.00;;
13685;SDS011;6915;48.296;8.874;2023-01-15T18:35:04;2.17;;;1.00;;
13685;SDS011;6915;48.296;8.874;2023-01-15T18:37:33;2.07;;;0.63;;
13685;SDS011;6915;48.296;8.874;2023-01-15T18:40:04;1.63;;;0.80;;
13685;SDS011;6915;48.296;8.874;2023-01-15T18:42:36;2.47;;;0.90;;
13685;SDS011;6915;48.296;8.874;2023-01-15T18:45:22;2.70;;;0.80;;
13685;SDS011;6915;48.296;8.874;2023-01-15T18:48:18;1.23;;;0.60;;
13685;SDS011;6915;48.296;8.874;2023-01-15T18:50:50;0.70;;;0.53;;
13685;SDS011;6915;48.296;8.874;2023-01-15T18:53:20;1.73;;;0.60;;
13685;SDS011;6915;48.296;8.874;2023-01-15T18:55:51;2.37;;;0.90;;
13685;SDS011;6915;48.296;8.874;2023-01-15T20:19:08;3.40;;;1.30;;